sensor_id;sensor_type;location;lat;lon;timestamp;P1;durP1;ratioP1;P2;durP2;ratioP2
13731;SDS011;6937;56.096;12.664;2024-03-29T00:01:30;15.15;;;13.10;;
13731;SDS011;6937;56.096;12.664;2024-03-29T00:03:55;14.23;;;12.88;;
13731;SDS011;6937;56.096;12.664;2024-03-29T00:06:21;15.07;;;12.23;;
13731;SDS011;6937;56.096;12.664;2024-03-29T00:08:46;11.88;;;10.70;;
13731;SDS011;6937;56.096;12.664;2024-03-29T00:11:12;10.50;;;9.52;;
13731;SDS011;6937;56.096;12.664;2024-03-29T00:13:37;11.30;;;10.25;;
13731;SDS011;6937;56.096;12.664;2024-03-29T00:16:02;11.52;;;9.93;;
13731;SDS011;6937;56.096;12.664;2024-03-29T00:18:28;10.55;;;9.45;;
13731;SDS011;6937;56.096;12.664;2024-03-29T00:20:53;10.95;;;8.65;;
13731;SDS011;6937;56.096;12.664;2024-03-29T00:23:19;11.75;;;9.48;;
13731;SDS011;6937;56.096;12.664;2024-03-29T00:25:44;11.40;;;9.38;;
13731;SDS011;6937;56.096;12.664;2024-03-29T00:28:10;10.63;;;9.38;;
13731;SDS011;6937;56.096;12.664;2024-03-29T00:30:35;11.93;;;9.65;;
13731;SDS011;6937;56.096;12.664;2024-03-29T00:33:01;12.48;;;8.05;;
13731;SDS011;6937;56.096;12.664;2024-03-29T00:35:26;10.13;;;7.55;;
13731;SDS011;6937;56.096;12.664;2024-03-29T00:37:51;9.07;;;7.00;;
13731;SDS011;6937;56.096;12.664;2024-03-29T00:40:17;12.88;;;7.35;;
13731;SDS011;6937;56.096;12.664;2024-03-29T00:42:42;12.35;;;7.15;;
13731;SDS011;6937;56.096;12.664;2024-03-29T00:45:08;11.65;;;7.25;;
13731;SDS011;6937;56.096;12.664;2024-03-29T00:47:33;12.18;;;6.70;;
13731;SDS011;6937;56.096;12.664;2024-03-29T00:50:00;10.90;;;6.25;;
13731;SDS011;6937;56.096;12.664;2024-03-29T00:52:25;12.77;;;6.90;;
13731;SDS011;6937;56.096;12.664;2024-03-29T00:54:51;9.35;;;5.82;;
13731;SDS011;6937;56.096;12.664;2024-03-29T00:57:16;10.07;;;5.93;;
13731;SDS011;6937;56.096;12.664;2024-03-29T00:59:42;9.85;;;5.57;;
13731;SDS011;6937;56.096;12.664;2024-03-29T01:02:08;11.88;;;5.22;;
13731;SDS011;6937;56.096;12.664;2024-03-29T01:04:34;10.50;;;5.05;;
13731;SDS011;6937;56.096;12.664;2024-03-29T01:06:59;8.88;;;5.15;;
13731;SDS011;6937;56.096;12.664;2024-03-29T01:09:25;11.13;;;5.70;;
13731;SDS011;6937;56.096;12.664;2024-03-29T01:11:51;11.20;;;5.25;;
13731;SDS011;6937;56.096;12.664;2024-03-29T01:14:17;15.43;;;5.50;;
13731;SDS011;6937;56.096;12.664;2024-03-29T01:16:42;12.65;;;6.03;;
13731;SDS011;6937;56.096;12.664;2024-03-29T01:19:08;11.80;;;5.95;;
13731;SDS011;6937;56.096;12.664;2024-03-29T01:21:35;10.80;;;5.55;;
13731;SDS011;6937;56.096;12.664;2024-03-29T01:24:01;11.57;;;5.57;;
13731;SDS011;6937;56.096;12.664;2024-03-29T01:26:26;12.07;;;5.78;;
13731;SDS011;6937;56.096;12.664;2024-03-29T01:28:52;11.02;;;5.32;;
13731;SDS011;6937;56.096;12.664;2024-03-29T01:31:17;12.63;;;5.05;;
13731;SDS011;6937;56.096;12.664;2024-03-29T01:33:43;11.52;;;5.13;;
13731;SDS011;6937;56.096;12.664;2024-03-29T01:36:08;12.25;;;5.07;;
13731;SDS011;6937;56.096;12.664;2024-03-29T01:38:34;12.10;;;5.10;;
13731;SDS011;6937;56.096;12.664;2024-03-29T01:41:00;12.98;;;4.20;;
13731;SDS011;6937;56.096;12.664;2024-03-29T01:43:25;9.98;;;4.30;;
13731;SDS011;6937;56.096;12.664;2024-03-29T01:45:54;12.18;;;4.63;;
13731;SDS011;6937;56.096;12.664;2024-03-29T01:48:21;12.85;;;3.90;;
13731;SDS011;6937;56.096;12.664;2024-03-29T01:50:48;11.73;;;4.10;;
13731;SDS011;6937;56.096;12.664;2024-03-29T01:53:15;14.82;;;4.25;;
13731;SDS011;6937;56.096;12.664;2024-03-29T01:55:43;17.23;;;4.65;;
13731;SDS011;6937;56.096;12.664;2024-03-29T01:58:09;13.02;;;4.28;;
13731;SDS011;6937;56.096;12.664;2024-03-29T02:00:36;13.85;;;3.40;;
13731;SDS011;6937;56.096;12.664;2024-03-29T02:03:05;12.80;;;3.97;;
13731;SDS011;6937;56.096;12.664;2024-03-29T02:05:37;11.15;;;3.58;;
13731;SDS011;6937;56.096;12.664;2024-03-29T02:08:04;10.80;;;3.95;;
13731;SDS011;6937;56.096;12.664;2024-03-29T02:10:31;10.52;;;3.78;;
13731;SDS011;6937;56.096;12.664;2024-03-29T02:12:57;9.70;;;3.55;;
13731;SDS011;6937;56.096;12.664;2024-03-29T02:15:22;11.20;;;3.30;;
13731;SDS011;6937;56.096;12.664;2024-03-29T02:17:48;10.82;;;3.92;;
13731;SDS011;6937;56.096;12.664;2024-03-29T02:20:13;8.75;;;3.45;;
13731;SDS011;6937;56.096;12.664;2024-03-29T02:22:40;12.13;;;3.80;;
13731;SDS011;6937;56.096;12.664;2024-03-29T02:25:12;13.57;;;3.75;;
13731;SDS011;6937;56.096;12.664;2024-03-29T02:27:38;14.70;;;3.80;;
13731;SDS011;6937;56.096;12.664;2024-03-29T02:30:03;10.63;;;4.10;;
13731;SDS011;6937;56.096;12.664;2024-03-29T02:32:29;11.90;;;3.30;;
13731;SDS011;6937;56.096;12.664;2024-03-29T02:34:55;8.65;;;3.35;;
13731;SDS011;6937;56.096;12.664;2024-03-29T02:37:20;10.90;;;3.30;;
13731;SDS011;6937;56.096;12.664;2024-03-29T02:39:46;11.52;;;3.65;;
13731;SDS011;6937;56.096;12.664;2024-03-29T02:42:11;9.23;;;3.72;;
13731;SDS011;6937;56.096;12.664;2024-03-29T02:44:36;10.13;;;3.60;;
13731;SDS011;6937;56.096;12.664;2024-03-29T02:47:02;11.52;;;4.07;;
13731;SDS011;6937;56.096;12.664;2024-03-29T02:49:27;11.30;;;4.80;;
13731;SDS011;6937;56.096;12.664;2024-03-29T02:51:53;11.35;;;5.35;;
13731;SDS011;6937;56.096;12.664;2024-03-29T02:54:19;12.07;;;5.82;;
13731;SDS011;6937;56.096;12.664;2024-03-29T02:56:44;12.38;;;6.72;;
13731;SDS011;6937;56.096;12.664;2024-03-29T02:59:10;13.60;;;7.00;;
13731;SDS011;6937;56.096;12.664;2024-03-29T03:01:35;13.98;;;7.75;;
13731;SDS011;6937;56.096;12.664;2024-03-29T03:04:00;16.98;;;7.90;;
13731;SDS011;6937;56.096;12.664;2024-03-29T03:06:26;16.38;;;8.25;;
13731;SDS011;6937;56.096;12.664;2024-03-29T03:08:51;12.18;;;8.32;;
13731;SDS011;6937;56.096;12.664;2024-03-29T03:11:35;18.85;;;9.73;;
13731;SDS011;6937;56.096;12.664;2024-03-29T03:14:00;15.57;;;9.65;;
13731;SDS011;6937;56.096;12.664;2024-03-29T03:16:26;20.17;;;11.02;;
13731;SDS011;6937;56.096;12.664;2024-03-29T03:18:51;18.83;;;10.75;;
13731;SDS011;6937;56.096;12.664;2024-03-29T03:21:17;16.85;;;10.90;;
13731;SDS011;6937;56.096;12.664;2024-03-29T03:23:42;17.63;;;11.63;;
13731;SDS011;6937;56.096;12.664;2024-03-29T03:26:07;23.30;;;13.25;;
13731;SDS011;6937;56.096;12.664;2024-03-29T03:28:33;20.90;;;13.23;;
13731;SDS011;6937;56.096;12.664;2024-03-29T03:31:00;19.50;;;13.88;;
13731;SDS011;6937;56.096;12.664;2024-03-29T03:33:26;19.50;;;15.63;;
13731;SDS011;6937;56.096;12.664;2024-03-29T03:35:51;22.00;;;16.35;;
13731;SDS011;6937;56.096;12.664;2024-03-29T03:38:17;22.85;;;17.98;;
13731;SDS011;6937;56.096;12.664;2024-03-29T03:40:42;23.95;;;18.40;;
13731;SDS011;6937;56.096;12.664;2024-03-29T03:43:08;29.40;;;19.33;;
13731;SDS011;6937;56.096;12.664;2024-03-29T03:45:37;27.77;;;19.35;;
13731;SDS011;6937;56.096;12.664;2024-03-29T03:48:04;27.10;;;19.90;;
13731;SDS011;6937;56.096;12.664;2024-03-29T03:50:31;25.23;;;19.20;;
13731;SDS011;6937;56.096;12.664;2024-03-29T03:52:57;30.23;;;20.98;;
13731;SDS011;6937;56.096;12.664;2024-03-29T03:55:22;26.60;;;19.67;;
13731;SDS011;6937;56.096;12.664;2024-03-29T03:57:48;26.45;;;18.60;;
13731;SDS011;6937;56.096;12.664;2024-03-29T04:00:14;28.05;;;20.83;;
13731;SDS011;6937;56.096;12.664;2024-03-29T04:02:39;27.83;;;21.23;;
13731;SDS011;6937;56.096;12.664;2024-03-29T04:05:06;28.63;;;21.65;;
13731;SDS011;6937;56.096;12.664;2024-03-29T04:07:32;25.85;;;20.85;;
13731;SDS011;6937;56.096;12.664;2024-03-29T04:09:57;26.92;;;21.10;;
13731;SDS011;6937;56.096;12.664;2024-03-29T04:12:22;30.88;;;22.88;;
13731;SDS011;6937;56.096;12.664;2024-03-29T04:14:48;31.83;;;23.17;;
13731;SDS011;6937;56.096;12.664;2024-03-29T04:17:14;28.92;;;22.35;;
13731;SDS011;6937;56.096;12.664;2024-03-29T04:19:39;29.98;;;22.48;;
13731;SDS011;6937;56.096;12.664;2024-03-29T04:22:05;29.98;;;21.20;;
13731;SDS011;6937;56.096;12.664;2024-03-29T04:24:30;35.40;;;22.67;;
13731;SDS011;6937;56.096;12.664;2024-03-29T04:26:56;32.90;;;23.70;;
13731;SDS011;6937;56.096;12.664;2024-03-29T04:29:22;30.63;;;23.17;;
13731;SDS011;6937;56.096;12.664;2024-03-29T04:31:47;32.72;;;23.65;;
13731;SDS011;6937;56.096;12.664;2024-03-29T04:34:12;28.17;;;22.23;;
13731;SDS011;6937;56.096;12.664;2024-03-29T04:36:38;29.70;;;22.08;;
13731;SDS011;6937;56.096;12.664;2024-03-29T04:39:04;30.25;;;21.73;;
13731;SDS011;6937;56.096;12.664;2024-03-29T04:41:29;30.55;;;22.08;;
13731;SDS011;6937;56.096;12.664;2024-03-29T04:44:02;31.98;;;21.98;;
13731;SDS011;6937;56.096;12.664;2024-03-29T04:46:31;26.42;;;19.95;;
13731;SDS011;6937;56.096;12.664;2024-03-29T04:48:57;29.58;;;20.88;;
13731;SDS011;6937;56.096;12.664;2024-03-29T04:51:22;31.52;;;21.58;;
13731;SDS011;6937;56.096;12.664;2024-03-29T04:53:48;29.52;;;22.25;;
13731;SDS011;6937;56.096;12.664;2024-03-29T04:56:14;30.73;;;21.02;;
13731;SDS011;6937;56.096;12.664;2024-03-29T04:58:40;30.00;;;21.17;;
13731;SDS011;6937;56.096;12.664;2024-03-29T05:01:05;30.17;;;20.83;;
13731;SDS011;6937;56.096;12.664;2024-03-29T05:03:32;26.95;;;20.10;;
13731;SDS011;6937;56.096;12.664;2024-03-29T05:05:57;27.85;;;20.10;;
13731;SDS011;6937;56.096;12.664;2024-03-29T05:08:22;29.38;;;20.75;;
13731;SDS011;6937;56.096;12.664;2024-03-29T05:10:48;27.65;;;20.20;;
13731;SDS011;6937;56.096;12.664;2024-03-29T05:13:17;27.63;;;21.40;;
13731;SDS011;6937;56.096;12.664;2024-03-29T05:15:45;24.13;;;19.75;;
13731;SDS011;6937;56.096;12.664;2024-03-29T05:18:11;28.50;;;20.27;;
13731;SDS011;6937;56.096;12.664;2024-03-29T05:20:36;23.88;;;19.58;;
13731;SDS011;6937;56.096;12.664;2024-03-29T05:23:04;25.95;;;19.27;;
13731;SDS011;6937;56.096;12.664;2024-03-29T05:25:30;25.15;;;19.15;;
13731;SDS011;6937;56.096;12.664;2024-03-29T05:27:55;26.88;;;20.38;;
13731;SDS011;6937;56.096;12.664;2024-03-29T05:30:20;28.35;;;20.48;;
13731;SDS011;6937;56.096;12.664;2024-03-29T05:32:46;24.33;;;19.60;;
13731;SDS011;6937;56.096;12.664;2024-03-29T05:35:11;23.52;;;18.95;;
13731;SDS011;6937;56.096;12.664;2024-03-29T05:37:38;24.08;;;18.88;;
13731;SDS011;6937;56.096;12.664;2024-03-29T05:40:04;22.50;;;17.85;;
13731;SDS011;6937;56.096;12.664;2024-03-29T05:42:32;21.50;;;17.95;;
13731;SDS011;6937;56.096;12.664;2024-03-29T05:44:58;21.05;;;17.55;;
13731;SDS011;6937;56.096;12.664;2024-03-29T05:47:24;19.15;;;16.55;;
13731;SDS011;6937;56.096;12.664;2024-03-29T05:49:49;18.55;;;16.30;;
13731;SDS011;6937;56.096;12.664;2024-03-29T05:52:15;18.48;;;14.73;;
13731;SDS011;6937;56.096;12.664;2024-03-29T05:54:42;17.27;;;14.82;;
13731;SDS011;6937;56.096;12.664;2024-03-29T05:57:08;16.17;;;13.50;;
13731;SDS011;6937;56.096;12.664;2024-03-29T05:59:34;16.20;;;13.90;;
13731;SDS011;6937;56.096;12.664;2024-03-29T06:02:00;14.20;;;12.68;;
13731;SDS011;6937;56.096;12.664;2024-03-29T06:04:25;15.90;;;12.60;;
13731;SDS011;6937;56.096;12.664;2024-03-29T06:07:03;14.45;;;12.95;;
13731;SDS011;6937;56.096;12.664;2024-03-29T06:09:29;15.02;;;12.57;;
13731;SDS011;6937;56.096;12.664;2024-03-29T06:11:56;13.82;;;11.10;;
13731;SDS011;6937;56.096;12.664;2024-03-29T06:14:25;14.07;;;11.23;;
13731;SDS011;6937;56.096;12.664;2024-03-29T06:17:09;12.38;;;10.40;;
13731;SDS011;6937;56.096;12.664;2024-03-29T06:19:50;12.93;;;10.38;;
13731;SDS011;6937;56.096;12.664;2024-03-29T06:22:17;10.93;;;9.75;;
13731;SDS011;6937;56.096;12.664;2024-03-29T06:24:43;10.48;;;9.30;;
13731;SDS011;6937;56.096;12.664;2024-03-29T06:27:10;10.32;;;9.25;;
13731;SDS011;6937;56.096;12.664;2024-03-29T06:29:35;9.65;;;8.38;;
13731;SDS011;6937;56.096;12.664;2024-03-29T06:32:01;8.90;;;7.88;;
13731;SDS011;6937;56.096;12.664;2024-03-29T06:34:30;9.30;;;8.00;;
13731;SDS011;6937;56.096;12.664;2024-03-29T06:36:55;8.55;;;7.50;;
13731;SDS011;6937;56.096;12.664;2024-03-29T06:39:21;9.52;;;7.93;;
13731;SDS011;6937;56.096;12.664;2024-03-29T06:41:46;11.73;;;7.88;;
13731;SDS011;6937;56.096;12.664;2024-03-29T06:44:12;8.55;;;6.93;;
13731;SDS011;6937;56.096;12.664;2024-03-29T06:46:38;7.38;;;6.65;;
13731;SDS011;6937;56.096;12.664;2024-03-29T06:49:03;9.15;;;6.82;;
13731;SDS011;6937;56.096;12.664;2024-03-29T06:51:29;7.07;;;6.20;;
13731;SDS011;6937;56.096;12.664;2024-03-29T06:53:54;7.38;;;6.40;;
13731;SDS011;6937;56.096;12.664;2024-03-29T06:56:20;8.93;;;6.50;;
13731;SDS011;6937;56.096;12.664;2024-03-29T06:58:46;8.65;;;6.00;;
13731;SDS011;6937;56.096;12.664;2024-03-29T07:01:11;6.07;;;5.47;;
13731;SDS011;6937;56.096;12.664;2024-03-29T07:03:36;7.38;;;5.93;;
13731;SDS011;6937;56.096;12.664;2024-03-29T07:06:02;8.48;;;5.63;;
13731;SDS011;6937;56.096;12.664;2024-03-29T07:08:28;6.68;;;5.80;;
13731;SDS011;6937;56.096;12.664;2024-03-29T07:10:57;9.32;;;5.75;;
13731;SDS011;6937;56.096;12.664;2024-03-29T07:13:27;7.15;;;5.25;;
13731;SDS011;6937;56.096;12.664;2024-03-29T07:15:54;7.72;;;4.82;;
13731;SDS011;6937;56.096;12.664;2024-03-29T07:18:20;7.10;;;4.78;;
13731;SDS011;6937;56.096;12.664;2024-03-29T07:20:46;4.93;;;4.13;;
13731;SDS011;6937;56.096;12.664;2024-03-29T07:23:11;6.82;;;4.25;;
13731;SDS011;6937;56.096;12.664;2024-03-29T07:25:38;6.95;;;4.10;;
13731;SDS011;6937;56.096;12.664;2024-03-29T07:28:03;7.03;;;4.40;;
13731;SDS011;6937;56.096;12.664;2024-03-29T07:30:29;5.03;;;4.10;;
13731;SDS011;6937;56.096;12.664;2024-03-29T07:32:54;7.95;;;3.83;;
13731;SDS011;6937;56.096;12.664;2024-03-29T07:35:20;6.88;;;3.50;;
13731;SDS011;6937;56.096;12.664;2024-03-29T07:37:45;6.78;;;3.80;;
13731;SDS011;6937;56.096;12.664;2024-03-29T07:40:13;5.55;;;3.45;;
13731;SDS011;6937;56.096;12.664;2024-03-29T07:42:38;5.10;;;3.40;;
13731;SDS011;6937;56.096;12.664;2024-03-29T07:45:04;5.15;;;2.88;;
13731;SDS011;6937;56.096;12.664;2024-03-29T07:47:29;6.13;;;3.45;;
13731;SDS011;6937;56.096;12.664;2024-03-29T07:49:55;5.10;;;3.05;;
13731;SDS011;6937;56.096;12.664;2024-03-29T07:52:20;5.03;;;3.05;;
13731;SDS011;6937;56.096;12.664;2024-03-29T07:54:46;4.70;;;2.60;;
13731;SDS011;6937;56.096;12.664;2024-03-29T07:57:12;4.97;;;2.72;;
13731;SDS011;6937;56.096;12.664;2024-03-29T07:59:40;4.32;;;2.88;;
13731;SDS011;6937;56.096;12.664;2024-03-29T08:02:05;7.10;;;3.15;;
13731;SDS011;6937;56.096;12.664;2024-03-29T08:04:31;4.93;;;2.53;;
13731;SDS011;6937;56.096;12.664;2024-03-29T08:06:56;4.88;;;2.58;;
13731;SDS011;6937;56.096;12.664;2024-03-29T08:09:22;4.82;;;2.70;;
13731;SDS011;6937;56.096;12.664;2024-03-29T08:11:47;4.18;;;2.50;;
13731;SDS011;6937;56.096;12.664;2024-03-29T08:14:13;4.28;;;2.50;;
13731;SDS011;6937;56.096;12.664;2024-03-29T08:16:38;5.63;;;2.20;;
13731;SDS011;6937;56.096;12.664;2024-03-29T08:19:04;3.65;;;2.38;;
13731;SDS011;6937;56.096;12.664;2024-03-29T08:21:30;4.57;;;2.00;;
13731;SDS011;6937;56.096;12.664;2024-03-29T08:23:55;4.43;;;2.30;;
13731;SDS011;6937;56.096;12.664;2024-03-29T08:26:24;6.07;;;2.70;;
13731;SDS011;6937;56.096;12.664;2024-03-29T08:28:49;3.70;;;2.17;;
13731;SDS011;6937;56.096;12.664;2024-03-29T08:31:15;4.72;;;2.00;;
13731;SDS011;6937;56.096;12.664;2024-03-29T08:33:41;3.67;;;2.13;;
13731;SDS011;6937;56.096;12.664;2024-03-29T08:36:08;5.05;;;2.30;;
13731;SDS011;6937;56.096;12.664;2024-03-29T08:38:36;4.63;;;2.10;;
13731;SDS011;6937;56.096;12.664;2024-03-29T08:41:02;3.67;;;2.40;;
13731;SDS011;6937;56.096;12.664;2024-03-29T08:43:28;4.28;;;2.67;;
13731;SDS011;6937;56.096;12.664;2024-03-29T08:45:54;4.90;;;2.15;;
13731;SDS011;6937;56.096;12.664;2024-03-29T08:48:19;4.07;;;2.38;;
13731;SDS011;6937;56.096;12.664;2024-03-29T08:50:45;4.38;;;2.28;;
13731;SDS011;6937;56.096;12.664;2024-03-29T08:53:11;3.00;;;2.00;;
13731;SDS011;6937;56.096;12.664;2024-03-29T08:55:36;5.05;;;1.98;;
13731;SDS011;6937;56.096;12.664;2024-03-29T08:58:04;3.47;;;1.88;;
13731;SDS011;6937;56.096;12.664;2024-03-29T09:00:30;3.83;;;2.15;;
13731;SDS011;6937;56.096;12.664;2024-03-29T09:02:56;4.22;;;2.03;;
13731;SDS011;6937;56.096;12.664;2024-03-29T09:05:22;4.43;;;2.30;;
13731;SDS011;6937;56.096;12.664;2024-03-29T09:07:51;5.65;;;2.50;;
13731;SDS011;6937;56.096;12.664;2024-03-29T09:10:16;3.97;;;2.45;;
13731;SDS011;6937;56.096;12.664;2024-03-29T09:12:42;7.35;;;2.60;;
13731;SDS011;6937;56.096;12.664;2024-03-29T09:15:08;5.43;;;2.20;;
13731;SDS011;6937;56.096;12.664;2024-03-29T09:17:38;5.63;;;2.42;;
13731;SDS011;6937;56.096;12.664;2024-03-29T09:20:05;4.20;;;2.30;;
13731;SDS011;6937;56.096;12.664;2024-03-29T09:22:31;5.63;;;2.38;;
13731;SDS011;6937;56.096;12.664;2024-03-29T09:24:56;4.43;;;2.35;;
13731;SDS011;6937;56.096;12.664;2024-03-29T09:27:21;5.03;;;2.55;;
13731;SDS011;6937;56.096;12.664;2024-03-29T09:29:50;5.78;;;2.30;;
13731;SDS011;6937;56.096;12.664;2024-03-29T09:32:15;4.05;;;2.35;;
13731;SDS011;6937;56.096;12.664;2024-03-29T09:34:43;4.93;;;2.10;;
13731;SDS011;6937;56.096;12.664;2024-03-29T09:37:09;4.30;;;2.00;;
13731;SDS011;6937;56.096;12.664;2024-03-29T09:39:35;6.38;;;2.38;;
13731;SDS011;6937;56.096;12.664;2024-03-29T09:42:00;6.82;;;2.30;;
13731;SDS011;6937;56.096;12.664;2024-03-29T09:44:27;6.22;;;2.38;;
13731;SDS011;6937;56.096;12.664;2024-03-29T09:46:59;5.25;;;1.80;;
13731;SDS011;6937;56.096;12.664;2024-03-29T09:49:29;5.10;;;1.80;;
13731;SDS011;6937;56.096;12.664;2024-03-29T09:51:58;7.45;;;2.00;;
13731;SDS011;6937;56.096;12.664;2024-03-29T09:54:26;5.15;;;2.08;;
13731;SDS011;6937;56.096;12.664;2024-03-29T09:56:53;6.00;;;1.98;;
13731;SDS011;6937;56.096;12.664;2024-03-29T09:59:21;3.80;;;1.70;;
13731;SDS011;6937;56.096;12.664;2024-03-29T10:01:47;3.53;;;1.65;;
13731;SDS011;6937;56.096;12.664;2024-03-29T10:04:14;10.48;;;2.25;;
13731;SDS011;6937;56.096;12.664;2024-03-29T10:06:41;6.32;;;1.85;;
13731;SDS011;6937;56.096;12.664;2024-03-29T10:09:09;8.23;;;2.17;;
13731;SDS011;6937;56.096;12.664;2024-03-29T10:11:36;5.55;;;1.95;;
13731;SDS011;6937;56.096;12.664;2024-03-29T10:14:01;8.57;;;1.90;;
13731;SDS011;6937;56.096;12.664;2024-03-29T10:16:29;6.53;;;1.90;;
13731;SDS011;6937;56.096;12.664;2024-03-29T10:18:57;5.65;;;1.90;;
13731;SDS011;6937;56.096;12.664;2024-03-29T10:21:26;5.30;;;1.92;;
13731;SDS011;6937;56.096;12.664;2024-03-29T10:23:52;4.78;;;1.73;;
13731;SDS011;6937;56.096;12.664;2024-03-29T10:26:17;3.80;;;1.77;;
13731;SDS011;6937;56.096;12.664;2024-03-29T10:28:43;5.68;;;1.63;;
13731;SDS011;6937;56.096;12.664;2024-03-29T10:31:09;4.70;;;1.73;;
13731;SDS011;6937;56.096;12.664;2024-03-29T10:33:35;5.55;;;2.00;;
13731;SDS011;6937;56.096;12.664;2024-03-29T10:36:01;5.97;;;1.63;;
13731;SDS011;6937;56.096;12.664;2024-03-29T10:38:33;4.03;;;1.80;;
13731;SDS011;6937;56.096;12.664;2024-03-29T10:40:59;5.22;;;1.63;;
13731;SDS011;6937;56.096;12.664;2024-03-29T10:43:26;5.82;;;2.05;;
13731;SDS011;6937;56.096;12.664;2024-03-29T10:45:53;4.78;;;1.88;;
13731;SDS011;6937;56.096;12.664;2024-03-29T10:48:24;3.72;;;1.50;;
13731;SDS011;6937;56.096;12.664;2024-03-29T10:50:51;6.13;;;1.58;;
13731;SDS011;6937;56.096;12.664;2024-03-29T10:53:19;4.68;;;1.77;;
13731;SDS011;6937;56.096;12.664;2024-03-29T10:55:45;4.18;;;1.45;;
13731;SDS011;6937;56.096;12.664;2024-03-29T10:58:12;4.43;;;1.90;;
13731;SDS011;6937;56.096;12.664;2024-03-29T11:00:41;3.72;;;1.40;;
13731;SDS011;6937;56.096;12.664;2024-03-29T11:03:20;4.70;;;1.55;;
13731;SDS011;6937;56.096;12.664;2024-03-29T11:06:04;5.15;;;1.48;;
13731;SDS011;6937;56.096;12.664;2024-03-29T11:08:34;4.53;;;1.70;;
13731;SDS011;6937;56.096;12.664;2024-03-29T11:11:08;5.75;;;1.73;;
13731;SDS011;6937;56.096;12.664;2024-03-29T11:16:14;4.68;;;1.67;;
13731;SDS011;6937;56.096;12.664;2024-03-29T11:18:44;3.13;;;1.52;;
13731;SDS011;6937;56.096;12.664;2024-03-29T11:21:09;4.22;;;1.48;;
13731;SDS011;6937;56.096;12.664;2024-03-29T11:23:37;6.18;;;1.50;;
13731;SDS011;6937;56.096;12.664;2024-03-29T11:26:02;4.43;;;1.60;;
13731;SDS011;6937;56.096;12.664;2024-03-29T11:28:32;3.55;;;1.60;;
13731;SDS011;6937;56.096;12.664;2024-03-29T11:31:03;3.15;;;1.40;;
13731;SDS011;6937;56.096;12.664;2024-03-29T11:36:00;3.08;;;1.40;;
13731;SDS011;6937;56.096;12.664;2024-03-29T11:38:35;4.32;;;1.42;;
13731;SDS011;6937;56.096;12.664;2024-03-29T11:43:37;5.50;;;1.70;;
13731;SDS011;6937;56.096;12.664;2024-03-29T11:46:06;6.82;;;1.67;;
13731;SDS011;6937;56.096;12.664;2024-03-29T11:48:33;6.28;;;1.85;;
13731;SDS011;6937;56.096;12.664;2024-03-29T11:51:00;7.43;;;1.80;;
13731;SDS011;6937;56.096;12.664;2024-03-29T11:53:26;6.38;;;1.63;;
13731;SDS011;6937;56.096;12.664;2024-03-29T11:55:59;6.93;;;1.75;;
13731;SDS011;6937;56.096;12.664;2024-03-29T11:58:26;4.75;;;1.95;;
13731;SDS011;6937;56.096;12.664;2024-03-29T12:00:54;6.15;;;2.00;;
13731;SDS011;6937;56.096;12.664;2024-03-29T12:03:21;6.65;;;1.80;;
13731;SDS011;6937;56.096;12.664;2024-03-29T12:05:47;4.60;;;1.70;;
13731;SDS011;6937;56.096;12.664;2024-03-29T12:08:14;2.90;;;1.48;;
13731;SDS011;6937;56.096;12.664;2024-03-29T12:10:40;5.57;;;1.80;;
13731;SDS011;6937;56.096;12.664;2024-03-29T12:13:06;5.75;;;1.50;;
13731;SDS011;6937;56.096;12.664;2024-03-29T12:15:32;6.45;;;1.83;;
13731;SDS011;6937;56.096;12.664;2024-03-29T12:17:59;5.20;;;1.83;;
13731;SDS011;6937;56.096;12.664;2024-03-29T12:20:30;4.65;;;1.63;;
13731;SDS011;6937;56.096;12.664;2024-03-29T12:22:56;5.18;;;1.55;;
13731;SDS011;6937;56.096;12.664;2024-03-29T12:25:25;4.55;;;2.08;;
13731;SDS011;6937;56.096;12.664;2024-03-29T12:27:52;3.25;;;1.63;;
13731;SDS011;6937;56.096;12.664;2024-03-29T12:30:18;5.13;;;1.90;;
13731;SDS011;6937;56.096;12.664;2024-03-29T12:32:43;4.03;;;1.30;;
13731;SDS011;6937;56.096;12.664;2024-03-29T12:35:16;4.85;;;1.45;;
13731;SDS011;6937;56.096;12.664;2024-03-29T12:37:48;4.75;;;1.60;;
13731;SDS011;6937;56.096;12.664;2024-03-29T12:40:18;5.00;;;2.17;;
13731;SDS011;6937;56.096;12.664;2024-03-29T12:42:51;5.38;;;2.00;;
13731;SDS011;6937;56.096;12.664;2024-03-29T12:45:17;8.60;;;2.25;;
13731;SDS011;6937;56.096;12.664;2024-03-29T12:47:44;5.68;;;2.38;;
13731;SDS011;6937;56.096;12.664;2024-03-29T12:50:12;4.50;;;1.50;;
13731;SDS011;6937;56.096;12.664;2024-03-29T12:52:44;6.40;;;2.03;;
13731;SDS011;6937;56.096;12.664;2024-03-29T12:55:09;4.53;;;1.73;;
13731;SDS011;6937;56.096;12.664;2024-03-29T12:57:35;6.55;;;2.10;;
13731;SDS011;6937;56.096;12.664;2024-03-29T13:00:05;5.10;;;1.67;;
13731;SDS011;6937;56.096;12.664;2024-03-29T13:02:37;4.97;;;1.50;;
13731;SDS011;6937;56.096;12.664;2024-03-29T13:05:05;5.90;;;1.77;;
13731;SDS011;6937;56.096;12.664;2024-03-29T13:07:32;5.43;;;1.63;;
13731;SDS011;6937;56.096;12.664;2024-03-29T13:09:59;7.60;;;1.80;;
13731;SDS011;6937;56.096;12.664;2024-03-29T13:12:28;5.40;;;1.67;;
13731;SDS011;6937;56.096;12.664;2024-03-29T13:14:55;5.13;;;1.73;;
13731;SDS011;6937;56.096;12.664;2024-03-29T13:17:20;5.82;;;1.75;;
13731;SDS011;6937;56.096;12.664;2024-03-29T13:19:46;3.70;;;1.40;;
13731;SDS011;6937;56.096;12.664;2024-03-29T13:22:11;4.18;;;1.50;;
13731;SDS011;6937;56.096;12.664;2024-03-29T13:24:36;3.90;;;1.65;;
13731;SDS011;6937;56.096;12.664;2024-03-29T13:27:02;6.25;;;2.28;;
13731;SDS011;6937;56.096;12.664;2024-03-29T13:29:28;9.05;;;2.08;;
13731;SDS011;6937;56.096;12.664;2024-03-29T13:31:55;3.63;;;1.80;;
13731;SDS011;6937;56.096;12.664;2024-03-29T13:34:21;4.53;;;1.98;;
13731;SDS011;6937;56.096;12.664;2024-03-29T13:36:47;5.45;;;1.85;;
13731;SDS011;6937;56.096;12.664;2024-03-29T13:39:13;5.63;;;1.90;;
13731;SDS011;6937;56.096;12.664;2024-03-29T13:41:40;6.57;;;2.28;;
13731;SDS011;6937;56.096;12.664;2024-03-29T13:44:05;6.47;;;2.10;;
13731;SDS011;6937;56.096;12.664;2024-03-29T13:46:34;6.30;;;2.25;;
13731;SDS011;6937;56.096;12.664;2024-03-29T13:49:01;8.27;;;2.63;;
13731;SDS011;6937;56.096;12.664;2024-03-29T13:51:28;7.15;;;2.17;;
13731;SDS011;6937;56.096;12.664;2024-03-29T13:53:53;5.57;;;2.25;;
13731;SDS011;6937;56.096;12.664;2024-03-29T13:56:19;6.22;;;2.33;;
13731;SDS011;6937;56.096;12.664;2024-03-29T13:58:45;7.50;;;2.17;;
13731;SDS011;6937;56.096;12.664;2024-03-29T14:01:10;6.93;;;2.30;;
13731;SDS011;6937;56.096;12.664;2024-03-29T14:03:36;5.00;;;1.90;;
13731;SDS011;6937;56.096;12.664;2024-03-29T14:06:01;5.13;;;2.25;;
13731;SDS011;6937;56.096;12.664;2024-03-29T14:08:27;5.68;;;2.47;;
13731;SDS011;6937;56.096;12.664;2024-03-29T14:10:53;8.93;;;2.40;;
13731;SDS011;6937;56.096;12.664;2024-03-29T14:13:19;5.88;;;2.22;;
13731;SDS011;6937;56.096;12.664;2024-03-29T14:15:44;6.45;;;2.55;;
13731;SDS011;6937;56.096;12.664;2024-03-29T14:18:10;7.95;;;2.17;;
13731;SDS011;6937;56.096;12.664;2024-03-29T14:20:36;4.25;;;2.08;;
13731;SDS011;6937;56.096;12.664;2024-03-29T14:23:01;5.95;;;2.08;;
13731;SDS011;6937;56.096;12.664;2024-03-29T14:25:31;4.47;;;1.73;;
13731;SDS011;6937;56.096;12.664;2024-03-29T14:27:57;4.28;;;1.70;;
13731;SDS011;6937;56.096;12.664;2024-03-29T14:30:24;5.65;;;1.73;;
13731;SDS011;6937;56.096;12.664;2024-03-29T14:32:50;3.95;;;1.58;;
13731;SDS011;6937;56.096;12.664;2024-03-29T14:35:17;5.65;;;1.88;;
13731;SDS011;6937;56.096;12.664;2024-03-29T14:37:46;7.35;;;2.10;;
13731;SDS011;6937;56.096;12.664;2024-03-29T14:40:12;3.65;;;1.58;;
13731;SDS011;6937;56.096;12.664;2024-03-29T14:42:39;4.05;;;1.63;;